createdAt,value
2022-08-09T00:00:00.880Z,14.84
2022-08-09T00:02:32.620Z,14.79
2022-08-09T00:05:03.644Z,14.82
2022-08-09T00:07:46.742Z,14.80
2022-08-09T00:10:21.070Z,14.75
2022-08-09T00:12:52.265Z,14.73
2022-08-09T00:15:20.112Z,14.72
2022-08-09T00:18:06.115Z,14.70
2022-08-09T00:20:42.235Z,14.54
2022-08-09T00:23:54.901Z,14.45
2022-08-09T00:26:05.199Z,14.32
2022-08-09T00:28:32.218Z,14.31
2022-08-09T00:31:30.527Z,14.35
2022-08-09T00:33:50.980Z,14.35
2022-08-09T00:36:19.430Z,14.32
2022-08-09T00:38:46.312Z,14.28
2022-08-09T00:44:13.562Z,14.23
2022-08-09T00:44:24.633Z,14.17
2022-08-09T00:46:56.088Z,14.15
2022-08-09T00:49:23.830Z,14.14
2022-08-09T00:51:57.106Z,14.10
2022-08-09T00:54:31.524Z,14.07
2022-08-09T00:57:02.842Z,14.04
2022-08-09T00:59:46.685Z,14.02
2022-08-09T01:02:21.258Z,13.97
2022-08-09T01:04:56.462Z,13.96
2022-08-09T01:07:37.769Z,13.93
2022-08-09T01:10:26.512Z,13.83
2022-08-09T01:13:16.734Z,13.76
2022-08-09T01:15:52.483Z,13.69
2022-08-09T01:18:29.850Z,13.60
2022-08-09T01:21:21.060Z,13.52
2022-08-09T01:24:03.966Z,13.52
2022-08-09T01:26:53.417Z,13.51
2022-08-09T01:29:41.185Z,13.50
2022-08-09T01:32:32.043Z,13.50
2022-08-09T01:35:06.862Z,13.49
2022-08-09T01:38:05.807Z,13.42
2022-08-09T01:40:28.577Z,13.32
2022-08-09T01:42:57.596Z,13.26
2022-08-09T01:45:26.240Z,13.21
2022-08-09T01:47:56.935Z,13.19
2022-08-09T01:50:25.497Z,13.18
2022-08-09T01:53:19.900Z,13.17
2022-08-09T01:55:47.708Z,13.14
2022-08-09T01:58:16.092Z,13.12
2022-08-09T02:00:46.235Z,13.05
2022-08-09T02:03:19.416Z,13.05
2022-08-09T02:06:04.110Z,13.06
2022-08-09T02:08:57.640Z,12.99
2022-08-09T02:11:42.957Z,12.98
2022-08-09T02:14:15.038Z,12.96
2022-08-09T02:16:59.741Z,12.94
2022-08-09T02:19:43.313Z,12.90
2022-08-09T02:22:40.426Z,12.79
2022-08-09T02:25:25.009Z,12.73
2022-08-09T02:28:03.674Z,12.74
2022-08-09T02:30:35.753Z,12.74
2022-08-09T02:33:03.584Z,12.75
2022-08-09T02:36:01.734Z,12.70
2022-08-09T02:38:32.285Z,12.65
2022-08-09T02:41:08.620Z,12.64
2022-08-09T02:43:54.180Z,12.60
2022-08-09T02:46:27.385Z,12.56
2022-08-09T02:48:58.883Z,12.56
2022-08-09T02:51:27.872Z,12.54
2022-08-09T02:54:05.514Z,12.52
2022-08-09T02:56:34.799Z,12.52
2022-08-09T02:59:05.627Z,12.44
2022-08-09T03:01:58.611Z,12.35
2022-08-09T03:04:26.287Z,12.31
2022-08-09T03:06:59.650Z,12.25
2022-08-09T03:09:43.075Z,12.27
2022-08-09T03:12:13.374Z,12.24
2022-08-09T03:14:42.268Z,12.22
2022-08-09T03:17:16.497Z,12.24
2022-08-09T03:19:58.593Z,12.24
2022-08-09T03:22:30.886Z,12.24
2022-08-09T03:25:21.740Z,12.22
2022-08-09T03:27:51.796Z,12.20
2022-08-09T03:30:29.495Z,12.18
2022-08-09T03:33:12.882Z,12.21
2022-08-09T03:36:13.381Z,12.15
2022-08-09T03:38:31.429Z,12.10
2022-08-09T03:40:58.317Z,11.98
2022-08-09T03:43:25.424Z,11.88
2022-08-09T03:46:04.475Z,11.83
2022-08-09T03:48:51.267Z,11.77
2022-08-09T03:51:56.365Z,11.73
2022-08-09T03:54:11.896Z,11.77
2022-08-09T03:56:41.513Z,11.77
2022-08-09T03:59:17.146Z,11.81
2022-08-09T04:01:56.566Z,11.85
2022-08-09T04:04:27.541Z,11.87
2022-08-09T04:07:04.323Z,11.86
2022-08-09T04:09:44.455Z,11.81
2022-08-09T04:12:30.456Z,11.82
2022-08-09T04:15:01.841Z,11.86
2022-08-09T04:17:29.930Z,11.91
2022-08-09T04:19:57.898Z,11.93
2022-08-09T04:22:29.556Z,11.96
2022-08-09T04:24:58.871Z,11.97
2022-08-09T04:27:25.919Z,11.93
2022-08-09T04:29:55.630Z,11.91
2022-08-09T04:32:31.447Z,11.90
2022-08-09T04:35:08.666Z,11.85
2022-08-09T04:37:42.124Z,11.84
2022-08-09T04:40:19.004Z,11.81
2022-08-09T04:42:48.646Z,11.85
2022-08-09T04:45:16.556Z,11.80
2022-08-09T04:47:58.554Z,11.81
2022-08-09T04:50:33.588Z,11.90
2022-08-09T04:53:02.510Z,11.96
2022-08-09T04:55:38.949Z,12.03
2022-08-09T04:58:17.063Z,12.09
2022-08-09T05:00:43.567Z,12.10
2022-08-09T05:03:30.214Z,12.12
2022-08-09T05:06:07.091Z,12.22
2022-08-09T05:08:35.234Z,12.26
2022-08-09T05:11:02.795Z,12.32
2022-08-09T05:13:32.876Z,12.44
2022-08-09T05:16:00.528Z,12.62
2022-08-09T05:18:42.539Z,13.76
2022-08-09T05:21:23.158Z,17.25
2022-08-09T05:23:58.487Z,20.50
2022-08-09T05:26:36.913Z,22.60
2022-08-09T05:29:21.192Z,24.14
2022-08-09T05:31:57.435Z,25.27
2022-08-09T05:34:34.333Z,25.85
2022-08-09T05:37:06.118Z,25.91
2022-08-09T05:39:42.856Z,26.07
2022-08-09T05:42:17.393Z,26.14
2022-08-09T05:44:50.786Z,25.04
2022-08-09T05:47:18.295Z,23.36
2022-08-09T05:50:25.854Z,22.60
2022-08-09T05:52:31.959Z,23.99
2022-08-09T05:55:06.748Z,22.59
2022-08-09T05:57:55.937Z,20.94
2022-08-09T06:00:29.960Z,19.81
2022-08-09T06:02:58.084Z,19.10
2022-08-09T06:05:50.549Z,18.46
2022-08-09T06:08:13.203Z,17.90
2022-08-09T06:10:39.896Z,17.60
2022-08-09T06:13:20.362Z,17.37
2022-08-09T06:15:52.376Z,17.23
2022-08-09T06:18:23.996Z,17.11
2022-08-09T06:20:56.980Z,17.11
2022-08-09T06:23:55.185Z,17.15
2022-08-09T06:26:21.103Z,17.09
2022-08-09T06:28:59.383Z,17.11
2022-08-09T06:31:31.273Z,17.18
2022-08-09T06:34:06.777Z,17.27
2022-08-09T06:36:35.144Z,17.34
2022-08-09T06:39:02.687Z,17.42
2022-08-09T06:41:58.855Z,17.50
2022-08-09T06:44:22.494Z,17.58
2022-08-09T06:46:55.491Z,17.62
2022-08-09T06:49:44.860Z,17.78
2022-08-09T06:52:10.303Z,17.81
2022-08-09T06:54:38.610Z,17.84
2022-08-09T06:57:05.874Z,17.87
2022-08-09T07:00:55.236Z,17.95
2022-08-09T07:02:21.975Z,18.00
2022-08-09T07:04:56.067Z,18.08
2022-08-09T07:07:59.553Z,18.16
2022-08-09T07:10:22.303Z,18.29
2022-08-09T07:12:57.577Z,18.42
2022-08-09T07:16:36.175Z,18.50
2022-08-09T07:18:14.320Z,18.54
2022-08-09T07:20:43.753Z,18.62
2022-08-09T07:23:18.963Z,18.71
2022-08-09T07:25:52.113Z,18.82
2022-08-09T07:28:26.273Z,18.97
2022-08-09T07:30:55.359Z,19.10
2022-08-09T07:33:21.851Z,19.21
2022-08-09T07:35:53.460Z,19.33
2022-08-09T07:38:20.263Z,19.37
2022-08-09T07:41:08.241Z,19.52
2022-08-09T07:43:49.827Z,19.63
2022-08-09T07:46:19.199Z,19.74
2022-08-09T07:48:46.674Z,19.79
2022-08-09T07:52:04.418Z,19.93
2022-08-09T07:54:12.266Z,20.14
2022-08-09T07:56:45.102Z,20.14
2022-08-09T07:59:33.600Z,20.28
2022-08-09T08:02:04.989Z,20.51
2022-08-09T08:04:32.973Z,20.59
2022-08-09T08:07:14.896Z,20.60
2022-08-09T08:10:04.533Z,20.61
2022-08-09T08:12:42.568Z,20.63
2022-08-09T08:15:11.363Z,20.79
2022-08-09T08:17:53.884Z,20.85
2022-08-09T08:20:28.747Z,20.95
2022-08-09T08:23:01.626Z,21.11
2022-08-09T08:25:44.682Z,21.17
2022-08-09T08:28:15.280Z,21.26
2022-08-09T08:30:44.193Z,21.30
2022-08-09T08:33:11.635Z,21.43
2022-08-09T08:35:58.142Z,21.63
2022-08-09T08:38:25.588Z,21.77
2022-08-09T08:40:56.465Z,21.80
2022-08-09T08:43:24.406Z,21.96
2022-08-09T08:46:03.770Z,22.03
2022-08-09T08:48:36.753Z,22.00
2022-08-09T08:51:04.936Z,22.07
2022-08-09T08:53:37.165Z,22.19
2022-08-09T08:56:05.386Z,22.31
2022-08-09T08:58:33.143Z,22.36
2022-08-09T09:01:08.681Z,22.52
2022-08-09T09:03:37.557Z,22.62
2022-08-09T09:06:05.899Z,22.65
2022-08-09T09:08:40.382Z,22.79
2022-08-09T09:11:08.969Z,22.90
2022-08-09T09:13:54.863Z,22.99
2022-08-09T09:16:29.880Z,23.13
2022-08-09T09:22:08.033Z,23.29
2022-08-09T09:24:45.123Z,23.51
2022-08-09T09:27:47.260Z,23.61
2022-08-09T09:33:15.990Z,24.08
2022-08-09T09:36:01.703Z,24.29
2022-08-09T09:38:45.207Z,24.49
2022-08-09T09:41:28.059Z,24.58
2022-08-09T09:44:11.420Z,24.83
2022-08-09T09:46:51.679Z,24.97
2022-08-09T09:49:31.695Z,25.05
2022-08-09T09:52:36.061Z,25.14
2022-08-09T09:55:16.112Z,25.28
2022-08-09T09:58:16.301Z,25.29
2022-08-09T10:00:59.425Z,25.39
2022-08-09T10:03:58.103Z,25.34
2022-08-09T10:06:53.887Z,25.31
2022-08-09T10:09:23.175Z,25.51
2022-08-09T10:12:14.793Z,25.62
2022-08-09T10:14:49.289Z,25.86
2022-08-09T10:17:51.050Z,26.01
2022-08-09T10:20:32.082Z,26.14
2022-08-09T10:23:13.660Z,26.14
2022-08-09T10:26:06.377Z,26.22
2022-08-09T10:28:33.970Z,26.41
2022-08-09T10:34:11.050Z,26.80
2022-08-09T10:36:36.107Z,26.96
2022-08-09T10:39:03.304Z,27.18
2022-08-09T10:41:32.849Z,27.06
2022-08-09T10:44:03.953Z,26.91
2022-08-09T10:47:00.981Z,27.12
2022-08-09T10:49:50.921Z,27.02
2022-08-09T10:53:00.084Z,27.09
2022-08-09T10:55:35.746Z,27.36
2022-08-09T10:58:33.900Z,27.50
2022-08-09T11:03:06.697Z,27.47
2022-08-09T11:04:28.146Z,27.45
2022-08-09T11:06:59.915Z,27.44
2022-08-09T11:09:47.364Z,27.30
2022-08-09T11:12:17.422Z,27.75
2022-08-09T11:14:57.521Z,28.07
2022-08-09T11:17:27.281Z,28.28
2022-08-09T11:20:19.736Z,28.36
2022-08-09T11:22:55.526Z,28.69
2022-08-09T11:25:44.788Z,28.75
2022-08-09T11:28:33.928Z,28.84
2022-08-09T11:31:36.538Z,28.79
2022-08-09T11:34:09.882Z,28.85
2022-08-09T11:36:43.071Z,28.74
2022-08-09T11:39:11.624Z,28.56
2022-08-09T11:41:40.682Z,28.44
2022-08-09T11:44:08.289Z,28.62
2022-08-09T11:47:00.728Z,28.57
2022-08-09T11:50:57.034Z,28.98
2022-08-09T11:53:58.873Z,29.18
2022-08-09T11:55:53.735Z,28.78
2022-08-09T11:58:33.219Z,28.52
2022-08-09T12:01:08.272Z,28.87
2022-08-09T12:03:55.182Z,29.05
2022-08-09T12:06:26.570Z,29.24
2022-08-09T12:09:01.182Z,29.29
2022-08-09T12:11:29.126Z,29.30
2022-08-09T12:14:08.502Z,29.16
2022-08-09T12:16:40.377Z,29.35
2022-08-09T12:19:09.633Z,29.55
2022-08-09T12:21:48.417Z,29.79
2022-08-09T12:24:24.518Z,29.79
2022-08-09T12:29:10.493Z,29.94
2022-08-09T12:30:01.629Z,29.62
2022-08-09T12:32:40.899Z,29.28
2022-08-09T12:35:12.423Z,29.48
2022-08-09T12:37:49.777Z,29.79
2022-08-09T12:40:18.628Z,30.25
2022-08-09T12:42:46.491Z,30.57
2022-08-09T12:45:32.062Z,30.72
2022-08-09T12:48:03.355Z,30.35
2022-08-09T12:50:30.777Z,29.76
2022-08-09T12:53:17.722Z,29.95
2022-08-09T12:56:11.788Z,30.44
2022-08-09T12:58:30.210Z,30.68
2022-08-09T13:00:58.465Z,30.75
2022-08-09T13:03:53.860Z,30.66
2022-08-09T13:06:45.564Z,29.50
2022-08-09T13:09:12.684Z,29.03
2022-08-09T13:11:42.817Z,29.20
2022-08-09T13:14:42.753Z,29.66
2022-08-09T13:17:33.669Z,29.64
2022-08-09T13:20:14.407Z,30.02
2022-08-09T13:23:01.048Z,30.48
2022-08-09T13:25:43.015Z,30.41
2022-08-09T13:28:33.996Z,30.60
2022-08-09T13:32:17.510Z,30.65
2022-08-09T13:34:01.857Z,30.90
2022-08-09T13:36:41.414Z,30.73
2022-08-09T13:41:19.295Z,30.47
2022-08-09T13:42:02.661Z,30.59
2022-08-09T13:44:30.549Z,30.62
2022-08-09T13:47:26.575Z,30.48
2022-08-09T13:49:57.346Z,29.58
2022-08-09T13:52:28.904Z,29.10
2022-08-09T13:55:00.978Z,29.40
2022-08-09T13:57:36.748Z,29.52
2022-08-09T14:00:13.379Z,30.02
2022-08-09T14:03:04.171Z,30.33
2022-08-09T14:05:56.419Z,30.73
2022-08-09T14:08:17.807Z,30.27
2022-08-09T14:10:50.428Z,30.17
2022-08-09T14:13:28.420Z,30.47
2022-08-09T14:16:10.819Z,30.56
2022-08-09T14:18:45.068Z,30.72
2022-08-09T14:21:17.769Z,30.49
2022-08-09T14:23:55.414Z,30.36
2022-08-09T14:26:32.825Z,30.43
2022-08-09T14:30:03.904Z,30.49
2022-08-09T14:31:58.227Z,30.38
2022-08-09T14:34:33.009Z,30.31
2022-08-09T14:37:06.658Z,29.91
2022-08-09T14:39:45.395Z,29.43
2022-08-09T14:42:31.341Z,29.05
2022-08-09T14:46:38.894Z,29.15
2022-08-09T14:47:56.968Z,29.98
2022-08-09T14:50:27.823Z,30.52
2022-08-09T14:52:54.596Z,30.67
2022-08-09T14:55:21.484Z,30.13
2022-08-09T14:57:49.046Z,29.83
2022-08-09T15:00:16.581Z,29.83
2022-08-09T15:02:43.013Z,30.26
2022-08-09T15:05:16.892Z,30.60
2022-08-09T15:07:45.528Z,30.41
2022-08-09T15:10:21.737Z,30.36
2022-08-09T15:12:55.852Z,30.26
2022-08-09T15:15:24.781Z,30.12
2022-08-09T15:17:55.910Z,29.69
2022-08-09T15:21:57.536Z,29.40
2022-08-09T15:24:02.659Z,29.17
2022-08-09T15:25:58.155Z,29.39
2022-08-09T15:28:28.161Z,29.90
2022-08-09T15:31:07.456Z,29.92
2022-08-09T15:34:17.546Z,29.38
2022-08-09T15:36:28.794Z,29.10
2022-08-09T15:38:58.670Z,29.30
2022-08-09T15:41:31.174Z,29.54
2022-08-09T15:44:02.027Z,30.02
2022-08-09T15:46:33.452Z,30.48
2022-08-09T15:49:21.860Z,30.54
2022-08-09T15:52:03.528Z,30.67
2022-08-09T15:54:46.414Z,31.21
2022-08-09T15:57:34.581Z,30.85
2022-08-09T16:00:08.312Z,30.66
2022-08-09T16:02:35.945Z,30.41
2022-08-09T16:05:03.935Z,29.89
2022-08-09T16:07:31.239Z,29.60
2022-08-09T16:10:17.009Z,29.22
2022-08-09T16:12:56.781Z,28.93
2022-08-09T16:16:10.119Z,28.51
2022-08-09T16:18:11.401Z,28.41
2022-08-09T16:20:38.738Z,28.34
2022-08-09T16:23:08.599Z,28.24
2022-08-09T16:25:40.650Z,28.18
2022-08-09T16:28:07.543Z,28.24
2022-08-09T16:30:38.451Z,28.20
2022-08-09T16:33:11.452Z,28.36
2022-08-09T16:35:56.776Z,28.44
2022-08-09T16:38:25.057Z,28.43
2022-08-09T16:40:52.030Z,28.43
2022-08-09T16:43:18.589Z,28.79
2022-08-09T16:45:48.083Z,29.21
2022-08-09T16:48:41.093Z,29.57
2022-08-09T16:51:07.470Z,29.67
2022-08-09T16:53:35.655Z,29.67
2022-08-09T16:56:09.750Z,29.49
2022-08-09T16:58:37.137Z,29.57
2022-08-09T17:01:07.822Z,29.67
2022-08-09T17:03:36.234Z,29.58
2022-08-09T17:06:28.462Z,29.41
2022-08-09T17:09:03.069Z,29.35
2022-08-09T17:11:41.644Z,29.35
2022-08-09T17:14:25.447Z,29.02
2022-08-09T17:16:54.056Z,28.93
2022-08-09T17:19:21.785Z,28.72
2022-08-09T17:21:54.466Z,28.62
2022-08-09T17:24:30.374Z,28.64
2022-08-09T17:26:57.616Z,28.72
2022-08-09T17:29:25.477Z,28.55
2022-08-09T17:32:00.867Z,28.44
2022-08-09T17:35:10.764Z,28.33
2022-08-09T17:37:20.026Z,28.25
2022-08-09T17:39:53.524Z,28.20
2022-08-09T17:42:41.119Z,27.97
2022-08-09T17:45:23.783Z,27.91
2022-08-09T17:47:54.920Z,27.83
2022-08-09T17:50:36.197Z,27.74
2022-08-09T17:53:04.834Z,27.65
2022-08-09T17:55:48.698Z,27.68
2022-08-09T17:58:18.814Z,27.57
2022-08-09T18:00:48.291Z,27.53
2022-08-09T18:03:15.462Z,27.45
2022-08-09T18:05:44.778Z,27.25
2022-08-09T18:08:13.229Z,27.15
2022-08-09T18:10:46.002Z,26.97
2022-08-09T18:13:40.194Z,26.92
2022-08-09T18:16:09.217Z,26.78
2022-08-09T18:18:42.893Z,26.64
2022-08-09T18:21:21.423Z,26.55
2022-08-09T18:24:10.481Z,26.46
2022-08-09T18:26:38.254Z,26.29
2022-08-09T18:30:39.441Z,26.14
2022-08-09T18:32:00.926Z,26.13
2022-08-09T18:34:31.501Z,25.93
2022-08-09T18:36:58.403Z,25.85
2022-08-09T18:39:25.639Z,25.75
2022-08-09T18:41:58.921Z,25.66
2022-08-09T18:44:26.005Z,25.55
2022-08-09T18:47:08.449Z,25.49
2022-08-09T18:49:43.075Z,25.35
2022-08-09T18:52:14.175Z,25.30
2022-08-09T18:54:52.650Z,25.20
2022-08-09T18:57:22.359Z,25.14
2022-08-09T18:59:55.640Z,24.91
2022-08-09T19:02:30.489Z,24.82
2022-08-09T19:05:03.919Z,24.71
2022-08-09T19:07:43.378Z,24.71
2022-08-09T19:10:29.245Z,24.61
2022-08-09T19:13:20.595Z,24.50
2022-08-09T19:15:52.384Z,24.43
2022-08-09T19:18:36.615Z,24.48
2022-08-09T19:21:10.299Z,24.37
2022-08-09T19:24:36.261Z,24.29
2022-08-09T19:26:31.229Z,24.14
2022-08-09T19:29:15.343Z,24.07
2022-08-09T19:31:49.427Z,23.98
2022-08-09T19:34:23.027Z,23.92
2022-08-09T19:36:55.463Z,23.79
2022-08-09T19:39:43.900Z,23.69
2022-08-09T19:42:15.116Z,23.63
2022-08-09T19:44:55.766Z,23.55
2022-08-09T19:47:23.746Z,23.44
2022-08-09T19:50:10.201Z,23.38
2022-08-09T19:52:49.777Z,23.37
2022-08-09T19:55:31.092Z,23.25
2022-08-09T19:58:16.091Z,23.14
2022-08-09T20:00:45.227Z,22.98
2022-08-09T20:04:18.522Z,22.88
2022-08-09T20:06:03.298Z,22.88
2022-08-09T20:08:34.899Z,22.81
2022-08-09T20:11:02.714Z,22.79
2022-08-09T20:13:37.119Z,22.75
2022-08-09T20:16:36.655Z,22.64
2022-08-09T20:19:42.400Z,22.59
2022-08-09T20:21:55.246Z,22.57
2022-08-09T20:24:29.838Z,22.45
2022-08-09T20:27:05.625Z,22.32
2022-08-09T20:29:39.285Z,22.25
2022-08-09T20:32:30.923Z,22.20
2022-08-09T20:35:00.035Z,22.24
2022-08-09T20:37:37.955Z,22.14
2022-08-09T20:40:27.217Z,22.06
2022-08-09T20:42:59.967Z,22.08
2022-08-09T20:46:01.659Z,22.10
2022-08-09T20:48:21.397Z,21.97
2022-08-09T20:50:50.322Z,21.96
2022-08-09T20:53:35.733Z,21.96
2022-08-09T20:56:08.986Z,21.96
2022-08-09T20:58:36.077Z,21.91
2022-08-09T21:01:32.538Z,21.81
2022-08-09T21:05:48.672Z,21.72
2022-08-09T21:06:42.487Z,21.68
2022-08-09T21:09:11.679Z,21.57
2022-08-09T21:14:26.761Z,21.40
2022-08-09T21:16:57.585Z,21.37
2022-08-09T21:20:18.680Z,21.30
2022-08-09T21:22:36.257Z,21.15
2022-08-09T21:25:17.988Z,21.13
2022-08-09T21:28:00.875Z,21.17
2022-08-09T21:30:27.715Z,21.04
2022-08-09T21:32:54.370Z,20.97
2022-08-09T21:35:21.774Z,20.90
2022-08-09T21:37:58.784Z,20.82
2022-08-09T21:40:30.421Z,20.73
2022-08-09T21:42:58.765Z,20.60
2022-08-09T21:45:25.963Z,20.52
2022-08-09T21:47:53.767Z,20.54
2022-08-09T21:50:35.786Z,20.48
2022-08-09T21:53:23.874Z,20.42
2022-08-09T21:55:53.843Z,20.31
2022-08-09T21:58:20.456Z,20.23
2022-08-09T22:00:48.597Z,20.27
2022-08-09T22:03:19.723Z,20.33
2022-08-09T22:05:52.779Z,20.23
2022-08-09T22:08:24.769Z,20.23
2022-08-09T22:11:00.839Z,20.17
2022-08-09T22:13:42.256Z,20.16
2022-08-09T22:16:12.132Z,20.06
2022-08-09T22:18:52.258Z,20.01
2022-08-09T22:21:24.257Z,20.04
2022-08-09T22:23:58.957Z,20.14
2022-08-09T22:26:35.088Z,20.31
2022-08-09T22:29:07.438Z,20.36
2022-08-09T22:31:53.168Z,20.43
2022-08-09T22:34:25.663Z,20.63
2022-08-09T22:36:53.893Z,20.72
2022-08-09T22:39:56.386Z,20.78
2022-08-09T22:42:20.752Z,20.81
2022-08-09T22:44:48.545Z,20.72
2022-08-09T22:48:11.356Z,20.84
2022-08-09T22:50:13.425Z,20.86
2022-08-09T22:52:40.046Z,20.77
2022-08-09T22:55:08.459Z,20.77
2022-08-09T22:57:59.919Z,20.77
2022-08-09T23:00:29.320Z,20.72
2022-08-09T23:02:56.496Z,20.82
2022-08-09T23:05:23.161Z,20.97
2022-08-09T23:08:27.437Z,21.00
2022-08-09T23:10:56.424Z,20.95
2022-08-09T23:13:23.138Z,20.79
2022-08-09T23:16:03.050Z,20.73
2022-08-09T23:18:31.334Z,20.68
2022-08-09T23:20:57.870Z,20.61
2022-08-09T23:23:24.430Z,20.65
2022-08-09T23:25:51.089Z,20.63
2022-08-09T23:28:17.729Z,20.60
2022-08-09T23:30:52.128Z,20.59
2022-08-09T23:33:22.865Z,20.59
2022-08-09T23:36:06.183Z,20.52
2022-08-09T23:38:34.706Z,20.53
2022-08-09T23:41:01.810Z,20.49
2022-08-09T23:43:28.298Z,20.47
2022-08-09T23:45:54.915Z,20.44
2022-08-09T23:48:21.382Z,20.42
2022-08-09T23:50:47.955Z,20.38
2022-08-09T23:53:14.599Z,20.42
2022-08-09T23:55:47.298Z,20.39
2022-08-09T23:58:26.222Z,20.19
